This is the latest recevied weather packets stored in our database for station/object BMCB-1. If no packets are shown the sender has not sent any weather packets the latest 10 day(s).
| Time | Temp. | Humidity | Pressure | Rain* | Wind** | Luminosity | Snow |
|---|---|---|---|---|---|---|---|
| 1777797013 | 13.89° C | 81% | 1017 hPa | 0 mm | - | 126 W/m² | - |
| 1777786212 | 12.22° C | 94% | 1016.5 hPa | 0 mm | - | 56 W/m² | - |
| 1777783212 | 10.56° C | 97% | 1016.9 hPa | 0 mm | - | 10 W/m² | - |
| 1777782012 | 10.56° C | 96% | 1016.9 hPa | 0 mm | - | 2 W/m² | - |
| 1777781412 | 10.56° C | 96% | 1016.9 hPa | 0 mm | - | 0 W/m² | - |
| 1777780812 | 10.56° C | 96% | 1017 hPa | 0 mm | - | 0 W/m² | - |
| 1777776012 | 11.67° C | 95% | 1017.2 hPa | 0 mm | - | 0 W/m² | - |
| 1777770612 | 11.67° C | 94% | 1017.9 hPa | 0 mm | - | 0 W/m² | - |
| 1777759213 | 14.44° C | 91% | 1018.2 hPa | 0 mm | - | 0 W/m² | - |
| 1777758013 | 14.44° C | 91% | 1018.3 hPa | 0 mm | - | 0 W/m² | - |
| 1777753813 | 14.44° C | 93% | 1018.6 hPa | 0 mm | - | 0 W/m² | - |
| 1777747813 | 16.11° C | 89% | 1018.3 hPa | 0 mm | - | 8 W/m² | - |
| 1777747214 | 16.67° C | 88% | 1018.3 hPa | 0 mm | - | 16 W/m² | - |
| 1777743614 | 18.89° C | 74% | 1018.3 hPa | 0.51 mm | - | 100 W/m² | - |
| 1777738213 | 22.22° C | 56% | 1018.7 hPa | 0 mm | - | 124 W/m² | - |
| 1777737620 | 22.22° C | 56% | 1018.7 hPa | 0 mm | - | 158 W/m² | - |
| 1777736414 | 22.78° C | 53% | 1018.7 hPa | 0 mm | - | 166 W/m² | - |
| 1777734614 | 22.78° C | 52% | 1019.1 hPa | 0 mm | - | 224 W/m² | - |
| 1777728613 | 22.22° C | 60% | 1020.7 hPa | 0 mm | - | 456 W/m² | - |
| 1777725013 | 20.56° C | 65% | 1021.7 hPa | 0 mm | - | 570 W/m² | - |
| 1777716613 | 20° C | 64% | 1023.1 hPa | 0 mm | - | 270 W/m² | - |
| 1777705214 | 15° C | 79% | 1024.3 hPa | 0 mm | - | 292 W/m² | - |
| 1777700414 | 10° C | 93% | 1025 hPa | 0 mm | - | 74 W/m² | - |
| 1777699813 | 10° C | 93% | 1025.1 hPa | 0 mm | - | 44 W/m² | - |
| 1777696814 | 8.89° C | 90% | 1025 hPa | 0 mm | - | 14 W/m² | - |
* Rain latest hour (hover to see other rain measurements)
** Current wind speed in m/s (hover to see current wind gust speed)